KMLJ/MLJ METAR and TAF weather

Enter ICAO airport designator
Station Type Date Time Source
KMLJ METAR 2022/07/03 13:58 UTC NOAA

KMLJ 031358Z AUTO 26003KT 10SM CLR 30/24 A3012 RMK AO2


Station Type Date Time Source
KMLJ Decoded METAR 2022/07/03 13:58 UTC NOAA

Milledgeville, Baldwin County Airport, GA, United States (KMLJ) 33-09-15N 083-14-26W
Jul 03, 2022 - 09:58 AM EDT / 2022.07.03 1358 UTC
Wind: from the W (260 degrees) at 3 MPH (3 KT):0
Visibility: 10 mile(s):0
Sky conditions: clear
Temperature: 86 F (30 C)
Heat index: 95.0 F (35.0 C):1
Dew Point: 75 F (24 C)
Relative Humidity: 70%
Pressure (altimeter): 30.12 in. Hg (1019 hPa)
ob: KMLJ 031358Z AUTO 26003KT 10SM CLR 30/24 A3012 RMK AO2
cycle: 14

Station Type Date Time Source
KMLJ TAF UTC NOAA

Error!

Example: see airport list